sensor_id;sensor_type;location;lat;lon;timestamp;P1;durP1;ratioP1;P2;durP2;ratioP2
81912;SDS011;71377;50.698;7.164;2023-11-21T00:01:02;6.40;;;5.07;;
81912;SDS011;71377;50.698;7.164;2023-11-21T00:03:30;7.10;;;4.82;;
81912;SDS011;71377;50.698;7.164;2023-11-21T00:05:57;7.97;;;7.18;;
81912;SDS011;71377;50.698;7.164;2023-11-21T00:08:24;7.80;;;6.85;;
81912;SDS011;71377;50.698;7.164;2023-11-21T00:10:50;9.00;;;8.07;;
81912;SDS011;71377;50.698;7.164;2023-11-21T00:13:17;7.32;;;6.28;;
81912;SDS011;71377;50.698;7.164;2023-11-21T00:15:44;7.50;;;5.20;;
81912;SDS011;71377;50.698;7.164;2023-11-21T00:18:10;9.00;;;5.47;;
81912;SDS011;71377;50.698;7.164;2023-11-21T00:20:37;6.30;;;4.82;;
81912;SDS011;71377;50.698;7.164;2023-11-21T00:23:05;7.43;;;4.97;;
81912;SDS011;71377;50.698;7.164;2023-11-21T00:25:31;8.25;;;4.70;;
81912;SDS011;71377;50.698;7.164;2023-11-21T00:27:58;4.88;;;4.15;;
81912;SDS011;71377;50.698;7.164;2023-11-21T00:30:26;6.45;;;4.28;;
81912;SDS011;71377;50.698;7.164;2023-11-21T00:32:54;7.18;;;4.70;;
81912;SDS011;71377;50.698;7.164;2023-11-21T00:35:21;7.15;;;4.43;;
81912;SDS011;71377;50.698;7.164;2023-11-21T00:37:47;7.28;;;4.60;;
81912;SDS011;71377;50.698;7.164;2023-11-21T00:40:16;8.82;;;5.15;;
81912;SDS011;71377;50.698;7.164;2023-11-21T00:42:45;6.85;;;4.68;;
81912;SDS011;71377;50.698;7.164;2023-11-21T00:45:12;5.72;;;4.65;;
81912;SDS011;71377;50.698;7.164;2023-11-21T00:47:39;7.68;;;4.95;;
81912;SDS011;71377;50.698;7.164;2023-11-21T00:50:05;6.47;;;4.90;;
81912;SDS011;71377;50.698;7.164;2023-11-21T00:52:32;8.93;;;5.63;;
81912;SDS011;71377;50.698;7.164;2023-11-21T00:54:59;7.15;;;5.03;;
81912;SDS011;71377;50.698;7.164;2023-11-21T00:57:26;7.10;;;5.40;;
81912;SDS011;71377;50.698;7.164;2023-11-21T00:59:52;6.43;;;4.93;;
81912;SDS011;71377;50.698;7.164;2023-11-21T01:02:19;7.70;;;4.95;;
81912;SDS011;71377;50.698;7.164;2023-11-21T01:04:45;11.05;;;6.07;;
81912;SDS011;71377;50.698;7.164;2023-11-21T01:07:14;9.52;;;5.05;;
81912;SDS011;71377;50.698;7.164;2023-11-21T01:09:40;8.60;;;6.00;;
81912;SDS011;71377;50.698;7.164;2023-11-21T01:12:07;8.90;;;6.28;;
81912;SDS011;71377;50.698;7.164;2023-11-21T01:14:33;8.27;;;5.63;;
81912;SDS011;71377;50.698;7.164;2023-11-21T01:17:00;7.68;;;5.60;;
81912;SDS011;71377;50.698;7.164;2023-11-21T01:19:26;9.60;;;6.05;;
81912;SDS011;71377;50.698;7.164;2023-11-21T01:21:55;11.70;;;6.63;;
81912;SDS011;71377;50.698;7.164;2023-11-21T01:24:21;10.70;;;7.32;;
81912;SDS011;71377;50.698;7.164;2023-11-21T01:26:48;11.23;;;6.40;;
81912;SDS011;71377;50.698;7.164;2023-11-21T01:29:14;8.98;;;7.07;;
81912;SDS011;71377;50.698;7.164;2023-11-21T01:31:41;10.15;;;7.25;;
81912;SDS011;71377;50.698;7.164;2023-11-21T01:34:07;13.07;;;7.53;;
81912;SDS011;71377;50.698;7.164;2023-11-21T01:36:34;10.05;;;7.13;;
81912;SDS011;71377;50.698;7.164;2023-11-21T01:39:01;10.18;;;7.65;;
81912;SDS011;71377;50.698;7.164;2023-11-21T01:41:34;10.20;;;7.38;;
81912;SDS011;71377;50.698;7.164;2023-11-21T01:44:01;12.43;;;7.80;;
81912;SDS011;71377;50.698;7.164;2023-11-21T01:46:28;11.52;;;7.22;;
81912;SDS011;71377;50.698;7.164;2023-11-21T01:48:55;11.00;;;7.20;;
81912;SDS011;71377;50.698;7.164;2023-11-21T01:51:21;9.18;;;6.38;;
81912;SDS011;71377;50.698;7.164;2023-11-21T01:53:48;10.93;;;6.97;;
81912;SDS011;71377;50.698;7.164;2023-11-21T01:56:15;9.50;;;6.47;;
81912;SDS011;71377;50.698;7.164;2023-11-21T01:58:42;11.88;;;6.93;;
81912;SDS011;71377;50.698;7.164;2023-11-21T02:01:09;9.07;;;6.93;;
81912;SDS011;71377;50.698;7.164;2023-11-21T02:03:36;11.15;;;7.18;;
81912;SDS011;71377;50.698;7.164;2023-11-21T02:06:02;7.95;;;6.90;;
81912;SDS011;71377;50.698;7.164;2023-11-21T02:08:29;9.65;;;7.15;;
81912;SDS011;71377;50.698;7.164;2023-11-21T02:10:56;12.65;;;7.55;;
81912;SDS011;71377;50.698;7.164;2023-11-21T02:13:23;10.23;;;7.65;;
81912;SDS011;71377;50.698;7.164;2023-11-21T02:15:50;12.50;;;7.45;;
81912;SDS011;71377;50.698;7.164;2023-11-21T02:18:18;9.20;;;7.88;;
81912;SDS011;71377;50.698;7.164;2023-11-21T02:20:45;11.90;;;8.52;;
81912;SDS011;71377;50.698;7.164;2023-11-21T02:23:12;12.40;;;8.32;;
81912;SDS011;71377;50.698;7.164;2023-11-21T02:25:39;14.02;;;9.38;;
81912;SDS011;71377;50.698;7.164;2023-11-21T02:28:05;18.35;;;9.88;;
81912;SDS011;71377;50.698;7.164;2023-11-21T02:30:32;13.48;;;8.85;;
81912;SDS011;71377;50.698;7.164;2023-11-21T02:32:59;13.70;;;8.98;;
81912;SDS011;71377;50.698;7.164;2023-11-21T02:35:27;15.07;;;9.13;;
81912;SDS011;71377;50.698;7.164;2023-11-21T02:37:53;12.90;;;8.73;;
81912;SDS011;71377;50.698;7.164;2023-11-21T02:40:21;11.82;;;8.90;;
81912;SDS011;71377;50.698;7.164;2023-11-21T02:42:47;12.20;;;8.57;;
81912;SDS011;71377;50.698;7.164;2023-11-21T02:45:14;15.35;;;9.45;;
81912;SDS011;71377;50.698;7.164;2023-11-21T02:47:43;14.07;;;9.18;;
81912;SDS011;71377;50.698;7.164;2023-11-21T02:50:10;13.40;;;9.35;;
81912;SDS011;71377;50.698;7.164;2023-11-21T02:52:37;11.05;;;9.27;;
81912;SDS011;71377;50.698;7.164;2023-11-21T02:55:06;11.95;;;8.55;;
81912;SDS011;71377;50.698;7.164;2023-11-21T02:57:35;12.90;;;7.65;;
81912;SDS011;71377;50.698;7.164;2023-11-21T03:00:02;11.35;;;8.35;;
81912;SDS011;71377;50.698;7.164;2023-11-21T03:02:29;13.38;;;8.32;;
81912;SDS011;71377;50.698;7.164;2023-11-21T03:04:56;12.50;;;8.48;;
81912;SDS011;71377;50.698;7.164;2023-11-21T03:07:22;12.20;;;7.32;;
81912;SDS011;71377;50.698;7.164;2023-11-21T03:09:48;13.90;;;8.80;;
81912;SDS011;71377;50.698;7.164;2023-11-21T03:12:15;12.60;;;8.40;;
81912;SDS011;71377;50.698;7.164;2023-11-21T03:14:42;11.85;;;8.27;;
81912;SDS011;71377;50.698;7.164;2023-11-21T03:17:08;12.65;;;8.50;;
81912;SDS011;71377;50.698;7.164;2023-11-21T03:19:35;11.52;;;8.80;;
81912;SDS011;71377;50.698;7.164;2023-11-21T03:22:01;14.73;;;9.30;;
81912;SDS011;71377;50.698;7.164;2023-11-21T03:24:27;14.50;;;9.07;;
81912;SDS011;71377;50.698;7.164;2023-11-21T03:26:54;12.18;;;8.93;;
81912;SDS011;71377;50.698;7.164;2023-11-21T03:29:20;10.68;;;8.93;;
81912;SDS011;71377;50.698;7.164;2023-11-21T03:31:47;16.10;;;9.05;;
81912;SDS011;71377;50.698;7.164;2023-11-21T03:34:22;15.13;;;9.10;;
81912;SDS011;71377;50.698;7.164;2023-11-21T03:36:51;9.63;;;8.27;;
81912;SDS011;71377;50.698;7.164;2023-11-21T03:39:21;16.10;;;9.20;;
81912;SDS011;71377;50.698;7.164;2023-11-21T03:41:48;15.68;;;9.05;;
81912;SDS011;71377;50.698;7.164;2023-11-21T03:44:15;11.98;;;8.68;;
81912;SDS011;71377;50.698;7.164;2023-11-21T03:46:41;13.05;;;8.45;;
81912;SDS011;71377;50.698;7.164;2023-11-21T03:49:07;13.77;;;9.07;;
81912;SDS011;71377;50.698;7.164;2023-11-21T03:51:34;13.98;;;8.82;;
81912;SDS011;71377;50.698;7.164;2023-11-21T03:54:00;10.82;;;8.25;;
81912;SDS011;71377;50.698;7.164;2023-11-21T03:56:27;16.83;;;9.73;;
81912;SDS011;71377;50.698;7.164;2023-11-21T03:58:53;13.07;;;8.45;;
81912;SDS011;71377;50.698;7.164;2023-11-21T04:01:20;17.73;;;8.68;;
81912;SDS011;71377;50.698;7.164;2023-11-21T04:03:50;15.55;;;9.50;;
81912;SDS011;71377;50.698;7.164;2023-11-21T04:06:18;18.98;;;10.15;;
81912;SDS011;71377;50.698;7.164;2023-11-21T04:08:44;16.05;;;10.30;;
81912;SDS011;71377;50.698;7.164;2023-11-21T04:11:11;16.02;;;10.32;;
81912;SDS011;71377;50.698;7.164;2023-11-21T04:13:39;13.80;;;10.00;;
81912;SDS011;71377;50.698;7.164;2023-11-21T04:16:06;14.90;;;10.32;;
81912;SDS011;71377;50.698;7.164;2023-11-21T04:18:36;14.23;;;9.93;;
81912;SDS011;71377;50.698;7.164;2023-11-21T04:21:04;16.05;;;10.15;;
81912;SDS011;71377;50.698;7.164;2023-11-21T04:23:31;16.55;;;10.98;;
81912;SDS011;71377;50.698;7.164;2023-11-21T04:25:58;18.10;;;10.85;;
81912;SDS011;71377;50.698;7.164;2023-11-21T04:28:25;19.10;;;10.80;;
81912;SDS011;71377;50.698;7.164;2023-11-21T04:30:51;18.38;;;10.85;;
81912;SDS011;71377;50.698;7.164;2023-11-21T04:33:18;17.23;;;11.70;;
81912;SDS011;71377;50.698;7.164;2023-11-21T04:35:44;19.55;;;11.57;;
81912;SDS011;71377;50.698;7.164;2023-11-21T04:38:11;17.52;;;10.98;;
81912;SDS011;71377;50.698;7.164;2023-11-21T04:40:37;15.85;;;10.65;;
81912;SDS011;71377;50.698;7.164;2023-11-21T04:43:03;16.13;;;10.35;;
81912;SDS011;71377;50.698;7.164;2023-11-21T04:45:30;18.58;;;10.68;;
81912;SDS011;71377;50.698;7.164;2023-11-21T04:47:56;15.50;;;10.68;;
81912;SDS011;71377;50.698;7.164;2023-11-21T04:50:23;18.35;;;10.98;;
81912;SDS011;71377;50.698;7.164;2023-11-21T04:52:52;20.33;;;11.27;;
81912;SDS011;71377;50.698;7.164;2023-11-21T04:55:18;18.50;;;11.57;;
81912;SDS011;71377;50.698;7.164;2023-11-21T04:57:45;16.50;;;11.25;;
81912;SDS011;71377;50.698;7.164;2023-11-21T05:00:13;21.67;;;12.85;;
81912;SDS011;71377;50.698;7.164;2023-11-21T05:02:40;21.00;;;12.60;;
81912;SDS011;71377;50.698;7.164;2023-11-21T05:05:08;17.15;;;12.68;;
81912;SDS011;71377;50.698;7.164;2023-11-21T05:07:36;18.63;;;11.73;;
81912;SDS011;71377;50.698;7.164;2023-11-21T05:10:06;22.58;;;14.57;;
81912;SDS011;71377;50.698;7.164;2023-11-21T05:12:36;22.75;;;12.80;;
81912;SDS011;71377;50.698;7.164;2023-11-21T05:15:06;15.95;;;12.02;;
81912;SDS011;71377;50.698;7.164;2023-11-21T05:17:37;24.05;;;13.48;;
81912;SDS011;71377;50.698;7.164;2023-11-21T05:20:05;18.98;;;12.15;;
81912;SDS011;71377;50.698;7.164;2023-11-21T05:22:34;18.95;;;12.02;;
81912;SDS011;71377;50.698;7.164;2023-11-21T05:25:02;21.58;;;12.95;;
81912;SDS011;71377;50.698;7.164;2023-11-21T05:27:33;24.08;;;13.43;;
81912;SDS011;71377;50.698;7.164;2023-11-21T05:30:01;20.35;;;12.70;;
81912;SDS011;71377;50.698;7.164;2023-11-21T05:32:34;25.35;;;14.07;;
81912;SDS011;71377;50.698;7.164;2023-11-21T05:35:00;21.95;;;12.88;;
81912;SDS011;71377;50.698;7.164;2023-11-21T05:37:27;20.83;;;13.10;;
81912;SDS011;71377;50.698;7.164;2023-11-21T05:39:53;24.50;;;13.50;;
81912;SDS011;71377;50.698;7.164;2023-11-21T05:42:22;20.80;;;13.02;;
81912;SDS011;71377;50.698;7.164;2023-11-21T05:44:49;21.52;;;14.00;;
81912;SDS011;71377;50.698;7.164;2023-11-21T05:47:16;22.90;;;13.75;;
81912;SDS011;71377;50.698;7.164;2023-11-21T05:49:43;21.50;;;13.45;;
81912;SDS011;71377;50.698;7.164;2023-11-21T05:52:11;20.80;;;12.35;;
81912;SDS011;71377;50.698;7.164;2023-11-21T05:54:37;19.63;;;13.48;;
81912;SDS011;71377;50.698;7.164;2023-11-21T05:57:04;23.77;;;13.40;;
81912;SDS011;71377;50.698;7.164;2023-11-21T05:59:30;21.98;;;12.90;;
81912;SDS011;71377;50.698;7.164;2023-11-21T06:01:56;17.77;;;11.75;;
81912;SDS011;71377;50.698;7.164;2023-11-21T06:04:23;19.40;;;12.55;;
81912;SDS011;71377;50.698;7.164;2023-11-21T06:06:53;25.13;;;13.43;;
81912;SDS011;71377;50.698;7.164;2023-11-21T06:09:20;20.23;;;12.60;;
81912;SDS011;71377;50.698;7.164;2023-11-21T06:11:46;19.10;;;12.60;;
81912;SDS011;71377;50.698;7.164;2023-11-21T06:14:13;26.30;;;13.88;;
81912;SDS011;71377;50.698;7.164;2023-11-21T06:16:41;23.65;;;14.75;;
81912;SDS011;71377;50.698;7.164;2023-11-21T06:19:07;23.08;;;14.63;;
81912;SDS011;71377;50.698;7.164;2023-11-21T06:21:34;31.27;;;14.07;;
81912;SDS011;71377;50.698;7.164;2023-11-21T06:24:01;21.92;;;12.80;;
81912;SDS011;71377;50.698;7.164;2023-11-21T06:26:27;24.17;;;13.98;;
81912;SDS011;71377;50.698;7.164;2023-11-21T06:28:54;20.00;;;13.30;;
81912;SDS011;71377;50.698;7.164;2023-11-21T06:31:21;21.17;;;12.40;;
81912;SDS011;71377;50.698;7.164;2023-11-21T06:33:47;19.98;;;12.73;;
81912;SDS011;71377;50.698;7.164;2023-11-21T06:36:14;18.40;;;12.50;;
81912;SDS011;71377;50.698;7.164;2023-11-21T06:38:40;21.77;;;13.35;;
81912;SDS011;71377;50.698;7.164;2023-11-21T06:41:07;21.67;;;13.05;;
81912;SDS011;71377;50.698;7.164;2023-11-21T06:43:34;20.08;;;11.73;;
81912;SDS011;71377;50.698;7.164;2023-11-21T06:46:01;27.25;;;14.93;;
81912;SDS011;71377;50.698;7.164;2023-11-21T06:48:27;19.60;;;13.73;;
81912;SDS011;71377;50.698;7.164;2023-11-21T06:50:54;25.02;;;14.18;;
81912;SDS011;71377;50.698;7.164;2023-11-21T06:53:20;21.92;;;13.32;;
81912;SDS011;71377;50.698;7.164;2023-11-21T06:55:47;25.80;;;13.23;;
81912;SDS011;71377;50.698;7.164;2023-11-21T06:58:37;23.40;;;13.80;;
81912;SDS011;71377;50.698;7.164;2023-11-21T07:01:04;26.05;;;13.18;;
81912;SDS011;71377;50.698;7.164;2023-11-21T07:03:32;25.80;;;13.77;;
81912;SDS011;71377;50.698;7.164;2023-11-21T07:05:59;24.63;;;13.57;;
81912;SDS011;71377;50.698;7.164;2023-11-21T07:08:25;23.65;;;12.50;;
81912;SDS011;71377;50.698;7.164;2023-11-21T07:10:53;23.38;;;12.52;;
81912;SDS011;71377;50.698;7.164;2023-11-21T07:13:19;23.13;;;11.75;;
81912;SDS011;71377;50.698;7.164;2023-11-21T07:15:45;20.55;;;11.70;;
81912;SDS011;71377;50.698;7.164;2023-11-21T07:18:12;22.40;;;12.35;;
81912;SDS011;71377;50.698;7.164;2023-11-21T07:20:39;23.90;;;11.75;;
81912;SDS011;71377;50.698;7.164;2023-11-21T07:23:06;20.00;;;12.43;;
81912;SDS011;71377;50.698;7.164;2023-11-21T07:25:32;24.10;;;12.48;;
81912;SDS011;71377;50.698;7.164;2023-11-21T07:27:59;20.45;;;11.80;;
81912;SDS011;71377;50.698;7.164;2023-11-21T07:30:26;25.27;;;12.00;;
81912;SDS011;71377;50.698;7.164;2023-11-21T07:32:55;17.48;;;11.25;;
81912;SDS011;71377;50.698;7.164;2023-11-21T07:35:21;22.88;;;11.68;;
81912;SDS011;71377;50.698;7.164;2023-11-21T07:37:48;20.42;;;11.07;;
81912;SDS011;71377;50.698;7.164;2023-11-21T07:40:15;16.10;;;10.85;;
81912;SDS011;71377;50.698;7.164;2023-11-21T07:42:42;21.08;;;12.85;;
81912;SDS011;71377;50.698;7.164;2023-11-21T07:45:09;21.42;;;11.60;;
81912;SDS011;71377;50.698;7.164;2023-11-21T07:47:35;26.25;;;12.60;;
81912;SDS011;71377;50.698;7.164;2023-11-21T07:50:02;26.67;;;13.63;;
81912;SDS011;71377;50.698;7.164;2023-11-21T07:52:30;21.58;;;12.27;;
81912;SDS011;71377;50.698;7.164;2023-11-21T07:54:56;25.67;;;11.95;;
81912;SDS011;71377;50.698;7.164;2023-11-21T07:57:22;19.85;;;11.70;;
81912;SDS011;71377;50.698;7.164;2023-11-21T07:59:49;22.20;;;11.90;;
81912;SDS011;71377;50.698;7.164;2023-11-21T08:02:15;23.23;;;11.68;;
81912;SDS011;71377;50.698;7.164;2023-11-21T08:04:43;22.55;;;11.40;;
81912;SDS011;71377;50.698;7.164;2023-11-21T08:07:12;22.55;;;12.10;;
81912;SDS011;71377;50.698;7.164;2023-11-21T08:09:38;21.23;;;11.68;;
81912;SDS011;71377;50.698;7.164;2023-11-21T08:12:04;20.83;;;11.55;;
81912;SDS011;71377;50.698;7.164;2023-11-21T08:14:31;23.30;;;12.20;;
81912;SDS011;71377;50.698;7.164;2023-11-21T08:16:57;18.55;;;11.43;;
81912;SDS011;71377;50.698;7.164;2023-11-21T08:19:25;21.95;;;11.38;;
81912;SDS011;71377;50.698;7.164;2023-11-21T08:21:51;22.33;;;12.30;;
81912;SDS011;71377;50.698;7.164;2023-11-21T08:24:21;22.20;;;12.50;;
81912;SDS011;71377;50.698;7.164;2023-11-21T08:26:48;22.33;;;12.65;;
81912;SDS011;71377;50.698;7.164;2023-11-21T08:29:14;22.88;;;11.68;;
81912;SDS011;71377;50.698;7.164;2023-11-21T08:31:40;22.73;;;12.10;;
81912;SDS011;71377;50.698;7.164;2023-11-21T08:34:07;24.15;;;13.18;;
81912;SDS011;71377;50.698;7.164;2023-11-21T08:36:34;22.30;;;11.68;;
81912;SDS011;71377;50.698;7.164;2023-11-21T08:39:02;19.70;;;11.98;;
81912;SDS011;71377;50.698;7.164;2023-11-21T08:41:28;26.45;;;13.10;;
81912;SDS011;71377;50.698;7.164;2023-11-21T08:43:54;25.40;;;12.45;;
81912;SDS011;71377;50.698;7.164;2023-11-21T08:46:22;23.25;;;12.63;;
81912;SDS011;71377;50.698;7.164;2023-11-21T08:48:49;24.48;;;12.65;;
81912;SDS011;71377;50.698;7.164;2023-11-21T08:51:20;25.70;;;13.13;;
81912;SDS011;71377;50.698;7.164;2023-11-21T08:53:46;22.90;;;12.30;;
81912;SDS011;71377;50.698;7.164;2023-11-21T08:56:13;23.92;;;12.73;;
81912;SDS011;71377;50.698;7.164;2023-11-21T08:58:40;23.05;;;13.20;;
81912;SDS011;71377;50.698;7.164;2023-11-21T09:01:07;25.83;;;13.35;;
81912;SDS011;71377;50.698;7.164;2023-11-21T09:03:34;20.77;;;12.45;;
81912;SDS011;71377;50.698;7.164;2023-11-21T09:06:04;22.05;;;12.95;;
81912;SDS011;71377;50.698;7.164;2023-11-21T09:08:31;28.00;;;13.15;;
81912;SDS011;71377;50.698;7.164;2023-11-21T09:11:00;22.60;;;12.52;;
81912;SDS011;71377;50.698;7.164;2023-11-21T09:13:26;27.98;;;14.35;;
81912;SDS011;71377;50.698;7.164;2023-11-21T09:15:53;23.38;;;12.45;;
81912;SDS011;71377;50.698;7.164;2023-11-21T09:18:19;24.17;;;13.10;;
81912;SDS011;71377;50.698;7.164;2023-11-21T09:20:46;25.80;;;13.18;;
81912;SDS011;71377;50.698;7.164;2023-11-21T09:23:13;25.55;;;13.60;;
81912;SDS011;71377;50.698;7.164;2023-11-21T09:25:40;26.10;;;12.30;;
81912;SDS011;71377;50.698;7.164;2023-11-21T09:28:06;27.00;;;12.55;;
81912;SDS011;71377;50.698;7.164;2023-11-21T09:30:35;29.05;;;13.38;;
81912;SDS011;71377;50.698;7.164;2023-11-21T09:33:02;28.25;;;13.23;;
81912;SDS011;71377;50.698;7.164;2023-11-21T09:35:32;21.77;;;12.75;;
81912;SDS011;71377;50.698;7.164;2023-11-21T09:37:59;28.08;;;13.98;;
81912;SDS011;71377;50.698;7.164;2023-11-21T09:40:27;25.60;;;13.93;;
81912;SDS011;71377;50.698;7.164;2023-11-21T09:42:56;25.98;;;14.10;;
81912;SDS011;71377;50.698;7.164;2023-11-21T09:45:27;27.65;;;13.98;;
81912;SDS011;71377;50.698;7.164;2023-11-21T09:47:55;28.58;;;13.65;;
81912;SDS011;71377;50.698;7.164;2023-11-21T09:50:22;30.35;;;13.95;;
81912;SDS011;71377;50.698;7.164;2023-11-21T09:55:34;27.20;;;14.55;;
81912;SDS011;71377;50.698;7.164;2023-11-21T09:58:28;26.02;;;14.60;;
81912;SDS011;71377;50.698;7.164;2023-11-21T10:00:57;31.98;;;15.38;;
81912;SDS011;71377;50.698;7.164;2023-11-21T10:03:25;30.98;;;15.27;;
81912;SDS011;71377;50.698;7.164;2023-11-21T10:05:53;25.65;;;15.25;;
81912;SDS011;71377;50.698;7.164;2023-11-21T10:08:22;33.45;;;16.48;;
81912;SDS011;71377;50.698;7.164;2023-11-21T10:10:51;35.15;;;16.48;;
81912;SDS011;71377;50.698;7.164;2023-11-21T10:13:20;26.20;;;14.90;;
81912;SDS011;71377;50.698;7.164;2023-11-21T10:15:49;30.13;;;16.27;;
81912;SDS011;71377;50.698;7.164;2023-11-21T10:18:17;30.95;;;15.25;;
81912;SDS011;71377;50.698;7.164;2023-11-21T10:20:44;34.90;;;18.77;;
81912;SDS011;71377;50.698;7.164;2023-11-21T10:25:47;35.20;;;17.63;;
81912;SDS011;71377;50.698;7.164;2023-11-21T10:28:14;38.95;;;19.35;;
81912;SDS011;71377;50.698;7.164;2023-11-21T10:30:41;41.58;;;23.05;;
81912;SDS011;71377;50.698;7.164;2023-11-21T10:33:08;34.75;;;17.73;;
81912;SDS011;71377;50.698;7.164;2023-11-21T10:35:47;33.00;;;18.25;;
81912;SDS011;71377;50.698;7.164;2023-11-21T10:38:21;35.08;;;19.63;;
81912;SDS011;71377;50.698;7.164;2023-11-21T10:40:50;38.42;;;18.50;;
81912;SDS011;71377;50.698;7.164;2023-11-21T10:43:17;40.22;;;19.98;;
81912;SDS011;71377;50.698;7.164;2023-11-21T10:45:45;36.00;;;19.45;;
81912;SDS011;71377;50.698;7.164;2023-11-21T10:48:15;38.55;;;19.90;;
81912;SDS011;71377;50.698;7.164;2023-11-21T10:50:45;35.85;;;19.23;;
81912;SDS011;71377;50.698;7.164;2023-11-21T10:53:13;36.42;;;19.58;;
81912;SDS011;71377;50.698;7.164;2023-11-21T10:55:40;37.72;;;18.48;;
81912;SDS011;71377;50.698;7.164;2023-11-21T10:58:13;37.28;;;19.02;;
81912;SDS011;71377;50.698;7.164;2023-11-21T11:00:41;31.95;;;16.98;;
81912;SDS011;71377;50.698;7.164;2023-11-21T11:03:11;37.25;;;18.67;;
81912;SDS011;71377;50.698;7.164;2023-11-21T11:05:43;35.75;;;17.33;;
81912;SDS011;71377;50.698;7.164;2023-11-21T11:08:19;34.25;;;18.02;;
81912;SDS011;71377;50.698;7.164;2023-11-21T11:10:52;34.45;;;18.92;;
81912;SDS011;71377;50.698;7.164;2023-11-21T11:13:19;34.78;;;18.75;;
81912;SDS011;71377;50.698;7.164;2023-11-21T11:15:48;33.78;;;17.88;;
81912;SDS011;71377;50.698;7.164;2023-11-21T11:18:15;31.83;;;17.52;;
81912;SDS011;71377;50.698;7.164;2023-11-21T11:20:42;31.35;;;17.73;;
81912;SDS011;71377;50.698;7.164;2023-11-21T11:26:12;33.83;;;18.70;;
81912;SDS011;71377;50.698;7.164;2023-11-21T11:29:03;34.28;;;18.40;;
81912;SDS011;71377;50.698;7.164;2023-11-21T11:35:12;34.55;;;18.60;;
81912;SDS011;71377;50.698;7.164;2023-11-21T11:37:35;35.80;;;18.33;;
81912;SDS011;71377;50.698;7.164;2023-11-21T11:40:06;36.70;;;19.58;;
81912;SDS011;71377;50.698;7.164;2023-11-21T11:42:33;32.00;;;18.90;;
81912;SDS011;71377;50.698;7.164;2023-11-21T11:44:59;40.50;;;21.50;;
81912;SDS011;71377;50.698;7.164;2023-11-21T11:47:27;39.20;;;19.67;;
81912;SDS011;71377;50.698;7.164;2023-11-21T11:52:40;38.90;;;20.23;;
81912;SDS011;71377;50.698;7.164;2023-11-21T11:55:08;41.85;;;21.90;;
81912;SDS011;71377;50.698;7.164;2023-11-21T11:57:36;36.28;;;20.80;;
81912;SDS011;71377;50.698;7.164;2023-11-21T12:00:08;41.33;;;23.02;;
81912;SDS011;71377;50.698;7.164;2023-11-21T12:02:46;38.33;;;21.02;;
81912;SDS011;71377;50.698;7.164;2023-11-21T12:05:17;35.03;;;19.90;;
81912;SDS011;71377;50.698;7.164;2023-11-21T12:07:50;38.90;;;21.05;;
81912;SDS011;71377;50.698;7.164;2023-11-21T12:10:21;38.95;;;21.88;;
81912;SDS011;71377;50.698;7.164;2023-11-21T12:12:57;36.92;;;20.58;;
81912;SDS011;71377;50.698;7.164;2023-11-21T12:15:25;35.42;;;19.58;;
81912;SDS011;71377;50.698;7.164;2023-11-21T12:17:52;35.15;;;21.17;;
81912;SDS011;71377;50.698;7.164;2023-11-21T12:20:20;44.00;;;21.70;;
81912;SDS011;71377;50.698;7.164;2023-11-21T12:22:48;39.67;;;21.15;;
81912;SDS011;71377;50.698;7.164;2023-11-21T12:25:18;37.58;;;20.50;;
81912;SDS011;71377;50.698;7.164;2023-11-21T12:27:46;44.30;;;25.08;;
81912;SDS011;71377;50.698;7.164;2023-11-21T12:30:16;39.50;;;21.88;;
81912;SDS011;71377;50.698;7.164;2023-11-21T12:32:44;36.25;;;20.00;;
81912;SDS011;71377;50.698;7.164;2023-11-21T12:35:12;36.53;;;19.40;;
81912;SDS011;71377;50.698;7.164;2023-11-21T12:37:39;36.50;;;18.35;;
81912;SDS011;71377;50.698;7.164;2023-11-21T12:40:08;31.48;;;17.70;;
81912;SDS011;71377;50.698;7.164;2023-11-21T12:42:41;32.10;;;17.48;;
81912;SDS011;71377;50.698;7.164;2023-11-21T12:45:09;36.38;;;18.67;;
81912;SDS011;71377;50.698;7.164;2023-11-21T12:47:49;28.83;;;16.48;;
81912;SDS011;71377;50.698;7.164;2023-11-21T12:50:20;27.75;;;15.02;;
81912;SDS011;71377;50.698;7.164;2023-11-21T12:52:58;28.48;;;15.65;;
81912;SDS011;71377;50.698;7.164;2023-11-21T12:55:29;26.58;;;15.07;;
81912;SDS011;71377;50.698;7.164;2023-11-21T12:57:57;27.48;;;14.95;;
81912;SDS011;71377;50.698;7.164;2023-11-21T13:00:33;22.67;;;14.30;;
81912;SDS011;71377;50.698;7.164;2023-11-21T13:03:11;27.42;;;14.80;;
81912;SDS011;71377;50.698;7.164;2023-11-21T13:05:43;30.15;;;16.05;;
81912;SDS011;71377;50.698;7.164;2023-11-21T13:08:14;31.40;;;15.18;;
81912;SDS011;71377;50.698;7.164;2023-11-21T13:10:45;29.67;;;15.45;;
81912;SDS011;71377;50.698;7.164;2023-11-21T13:13:15;32.88;;;15.73;;
81912;SDS011;71377;50.698;7.164;2023-11-21T13:15:51;26.73;;;15.10;;
81912;SDS011;71377;50.698;7.164;2023-11-21T13:18:19;36.58;;;17.63;;
81912;SDS011;71377;50.698;7.164;2023-11-21T13:20:48;36.60;;;19.88;;
81912;SDS011;71377;50.698;7.164;2023-11-21T13:23:15;24.58;;;14.88;;
81912;SDS011;71377;50.698;7.164;2023-11-21T13:25:42;28.00;;;15.18;;
81912;SDS011;71377;50.698;7.164;2023-11-21T13:28:19;30.42;;;16.27;;
81912;SDS011;71377;50.698;7.164;2023-11-21T13:30:47;30.75;;;15.98;;
81912;SDS011;71377;50.698;7.164;2023-11-21T13:33:14;30.30;;;16.17;;
81912;SDS011;71377;50.698;7.164;2023-11-21T13:35:47;27.13;;;14.93;;
81912;SDS011;71377;50.698;7.164;2023-11-21T13:38:15;28.88;;;15.07;;
81912;SDS011;71377;50.698;7.164;2023-11-21T13:40:52;27.55;;;14.35;;
81912;SDS011;71377;50.698;7.164;2023-11-21T13:43:21;32.25;;;15.88;;
81912;SDS011;71377;50.698;7.164;2023-11-21T13:45:52;32.22;;;15.43;;
81912;SDS011;71377;50.698;7.164;2023-11-21T13:48:41;27.65;;;14.30;;
81912;SDS011;71377;50.698;7.164;2023-11-21T13:51:09;29.70;;;15.57;;
81912;SDS011;71377;50.698;7.164;2023-11-21T13:53:47;31.80;;;14.93;;
81912;SDS011;71377;50.698;7.164;2023-11-21T13:56:17;28.45;;;14.07;;
81912;SDS011;71377;50.698;7.164;2023-11-21T13:58:48;31.13;;;14.60;;
81912;SDS011;71377;50.698;7.164;2023-11-21T14:01:18;26.65;;;14.73;;
81912;SDS011;71377;50.698;7.164;2023-11-21T14:03:59;30.50;;;14.55;;
81912;SDS011;71377;50.698;7.164;2023-11-21T14:06:49;30.95;;;14.70;;
81912;SDS011;71377;50.698;7.164;2023-11-21T14:09:22;31.00;;;15.35;;
81912;SDS011;71377;50.698;7.164;2023-11-21T14:11:50;30.55;;;14.45;;
81912;SDS011;71377;50.698;7.164;2023-11-21T14:14:22;30.50;;;13.45;;
81912;SDS011;71377;50.698;7.164;2023-11-21T14:16:51;24.17;;;12.27;;
81912;SDS011;71377;50.698;7.164;2023-11-21T14:19:18;28.05;;;13.80;;
81912;SDS011;71377;50.698;7.164;2023-11-21T14:21:45;26.33;;;13.10;;
81912;SDS011;71377;50.698;7.164;2023-11-21T14:24:12;28.90;;;13.73;;
81912;SDS011;71377;50.698;7.164;2023-11-21T14:26:40;28.38;;;13.82;;
81912;SDS011;71377;50.698;7.164;2023-11-21T14:29:08;30.00;;;13.45;;
81912;SDS011;71377;50.698;7.164;2023-11-21T14:31:38;29.55;;;13.52;;
81912;SDS011;71377;50.698;7.164;2023-11-21T14:34:05;27.60;;;13.43;;
81912;SDS011;71377;50.698;7.164;2023-11-21T14:36:33;26.98;;;13.60;;
81912;SDS011;71377;50.698;7.164;2023-11-21T14:39:01;24.58;;;12.18;;
81912;SDS011;71377;50.698;7.164;2023-11-21T14:41:28;25.73;;;12.95;;
81912;SDS011;71377;50.698;7.164;2023-11-21T14:43:55;27.60;;;13.70;;
81912;SDS011;71377;50.698;7.164;2023-11-21T14:46:23;23.55;;;12.52;;